createdAt,value
2022-12-01T00:01:18.096Z,100.00
2022-12-01T00:04:03.579Z,100.00
2022-12-01T00:06:48.964Z,100.00
2022-12-01T00:09:52.922Z,100.00
2022-12-01T00:12:43.466Z,100.00
2022-12-01T00:15:37.149Z,100.00
2022-12-01T00:18:22.209Z,100.00
2022-12-01T00:21:14.043Z,100.00
2022-12-01T00:23:59.379Z,100.00
2022-12-01T00:26:44.533Z,100.00
2022-12-01T00:29:29.760Z,100.00
2022-12-01T00:32:15.210Z,100.00
2022-12-01T00:35:00.584Z,100.00
2022-12-01T00:37:45.948Z,100.00
2022-12-01T00:40:31.054Z,100.00
2022-12-01T00:43:16.346Z,100.00
2022-12-01T00:46:01.820Z,100.00
2022-12-01T00:48:47.185Z,100.00
2022-12-01T00:51:32.262Z,100.00
2022-12-01T00:54:17.383Z,100.00
2022-12-01T00:57:03.036Z,100.00
2022-12-01T00:59:48.308Z,100.00
2022-12-01T01:02:34.085Z,100.00
2022-12-01T01:05:19.242Z,100.00
2022-12-01T01:08:12.888Z,100.00
2022-12-01T01:10:59.671Z,100.00
2022-12-01T01:13:45.038Z,100.00
2022-12-01T01:16:30.387Z,100.00
2022-12-01T01:19:16.713Z,100.00
2022-12-01T01:22:02.052Z,100.00
2022-12-01T01:24:47.332Z,100.00
2022-12-01T01:27:34.552Z,100.00
2022-12-01T01:30:20.062Z,100.00
2022-12-01T01:33:05.070Z,100.00
2022-12-01T01:35:50.550Z,100.00
2022-12-01T01:38:36.232Z,100.00
2022-12-01T01:41:22.589Z,100.00
2022-12-01T01:44:45.164Z,100.00
2022-12-01T01:47:34.766Z,100.00
2022-12-01T01:50:23.000Z,100.00
2022-12-01T01:53:12.420Z,100.00
2022-12-01T01:55:58.877Z,100.00
2022-12-01T01:58:44.840Z,100.00
2022-12-01T02:01:31.378Z,100.00
2022-12-01T02:04:16.674Z,100.00
2022-12-01T02:07:01.980Z,100.00
2022-12-01T02:09:47.664Z,100.00
2022-12-01T02:12:55.169Z,100.00
2022-12-01T02:16:12.744Z,100.00
2022-12-01T02:19:35.885Z,100.00
2022-12-01T02:22:38.112Z,100.00
2022-12-01T02:26:02.116Z,100.00
2022-12-01T02:29:24.920Z,100.00
2022-12-01T02:32:33.414Z,100.00
2022-12-01T02:35:39.322Z,100.00
2022-12-01T02:38:35.552Z,100.00
2022-12-01T02:41:29.682Z,100.00
2022-12-01T02:44:24.852Z,100.00
2022-12-01T02:47:14.601Z,100.00
2022-12-01T02:50:01.642Z,100.00
2022-12-01T02:52:47.844Z,100.00
2022-12-01T02:55:32.999Z,100.00
2022-12-01T02:58:18.504Z,100.00
2022-12-01T03:01:30.099Z,100.00
2022-12-01T03:04:24.844Z,100.00
2022-12-01T03:07:19.632Z,100.00
2022-12-01T03:10:25.317Z,100.00
2022-12-01T03:13:29.601Z,100.00
2022-12-01T03:16:42.127Z,100.00
2022-12-01T03:19:43.709Z,100.00
2022-12-01T03:22:36.243Z,100.00
2022-12-01T03:25:26.246Z,100.00
2022-12-01T03:28:22.854Z,100.00
2022-12-01T03:31:13.306Z,100.00
2022-12-01T03:34:24.210Z,100.00
2022-12-01T03:37:18.616Z,100.00
2022-12-01T03:40:08.958Z,100.00
2022-12-01T03:43:01.894Z,100.00
2022-12-01T03:45:56.429Z,100.00
2022-12-01T03:48:42.264Z,100.00
2022-12-01T03:52:10.462Z,100.00
2022-12-01T03:55:09.002Z,100.00
2022-12-01T03:58:03.634Z,100.00
2022-12-01T04:00:53.165Z,100.00
2022-12-01T04:03:38.555Z,100.00
2022-12-01T04:06:23.681Z,100.00
2022-12-01T04:09:09.081Z,100.00
2022-12-01T04:12:13.005Z,100.00
2022-12-01T04:15:03.422Z,100.00
2022-12-01T04:17:48.502Z,100.00
2022-12-01T04:20:33.762Z,100.00
2022-12-01T04:23:37.657Z,100.00
2022-12-01T04:26:22.986Z,100.00
2022-12-01T04:29:11.200Z,100.00
2022-12-01T04:31:56.132Z,100.00
2022-12-01T04:34:41.411Z,100.00
2022-12-01T04:37:26.691Z,100.00
2022-12-01T04:40:12.367Z,100.00
2022-12-01T04:42:57.216Z,100.00
2022-12-01T04:45:42.461Z,100.00
2022-12-01T04:48:27.588Z,100.00
2022-12-01T04:51:12.914Z,100.00
2022-12-01T04:53:58.632Z,100.00
2022-12-01T04:56:43.817Z,100.00
2022-12-01T04:59:29.018Z,100.00
2022-12-01T05:02:15.151Z,100.00
2022-12-01T05:05:00.632Z,100.00
2022-12-01T05:07:45.872Z,100.00
2022-12-01T05:10:30.863Z,100.00
2022-12-01T05:13:16.173Z,100.00
2022-12-01T05:16:09.330Z,100.00
2022-12-01T05:19:16.054Z,100.00
2022-12-01T05:22:01.021Z,100.00
2022-12-01T05:24:46.298Z,100.00
2022-12-01T05:27:31.226Z,100.00
2022-12-01T05:30:16.829Z,100.00
2022-12-01T05:33:01.746Z,100.00
2022-12-01T05:35:48.900Z,100.00
2022-12-01T05:38:34.035Z,100.00
2022-12-01T05:41:19.257Z,100.00
2022-12-01T05:44:04.642Z,100.00
2022-12-01T05:46:50.004Z,100.00
2022-12-01T05:49:35.315Z,100.00
2022-12-01T05:52:20.624Z,100.00
2022-12-01T05:55:06.763Z,100.00
2022-12-01T05:57:51.891Z,100.00
2022-12-01T06:00:45.017Z,100.00
2022-12-01T06:03:30.650Z,100.00
2022-12-01T06:06:15.721Z,100.00
2022-12-01T06:09:01.115Z,100.00
2022-12-01T06:11:50.021Z,100.00
2022-12-01T06:14:37.620Z,100.00
2022-12-01T06:17:22.633Z,100.00
2022-12-01T06:20:09.560Z,100.00
2022-12-01T06:22:54.924Z,100.00
2022-12-01T06:25:40.256Z,100.00
2022-12-01T06:28:25.573Z,100.00
2022-12-01T06:31:10.762Z,100.00
2022-12-01T06:33:55.942Z,100.00
2022-12-01T06:36:41.267Z,100.00
2022-12-01T06:39:26.692Z,100.00
2022-12-01T06:42:12.187Z,100.00
2022-12-01T06:44:57.195Z,100.00
2022-12-01T06:47:42.516Z,100.00
2022-12-01T06:50:27.693Z,100.00
2022-12-01T06:53:12.857Z,100.00
2022-12-01T06:56:05.201Z,100.00
2022-12-01T06:58:50.730Z,100.00
2022-12-01T07:01:36.647Z,100.00
2022-12-01T07:04:21.736Z,100.00
2022-12-01T07:07:07.107Z,100.00
2022-12-01T07:09:52.361Z,100.00
2022-12-01T07:12:38.185Z,100.00
2022-12-01T07:15:24.357Z,100.00
2022-12-01T07:18:09.602Z,100.00
2022-12-01T07:20:59.076Z,100.00
2022-12-01T07:23:44.306Z,100.00
2022-12-01T07:26:29.462Z,100.00
2022-12-01T07:29:14.530Z,100.00
2022-12-01T07:31:59.708Z,100.00
2022-12-01T07:34:45.026Z,100.00
2022-12-01T07:37:30.178Z,100.00
2022-12-01T07:40:15.526Z,100.00
2022-12-01T07:43:00.810Z,100.00
2022-12-01T07:45:46.100Z,100.00
2022-12-01T07:48:31.395Z,100.00
2022-12-01T07:51:17.375Z,100.00
2022-12-01T07:54:05.010Z,100.00
2022-12-01T07:56:50.336Z,100.00
2022-12-01T07:59:35.512Z,100.00
2022-12-01T08:02:20.997Z,100.00
2022-12-01T08:05:07.020Z,100.00
2022-12-01T08:07:53.952Z,100.00
2022-12-01T08:10:39.484Z,100.00
2022-12-01T08:13:24.721Z,100.00
2022-12-01T08:16:13.281Z,100.00
2022-12-01T08:18:58.570Z,100.00
2022-12-01T08:21:44.919Z,100.00
2022-12-01T08:24:30.504Z,100.00
2022-12-01T08:27:15.575Z,100.00
2022-12-01T08:30:00.526Z,100.00
2022-12-01T08:32:45.922Z,100.00
2022-12-01T08:35:31.159Z,100.00
2022-12-01T08:38:16.426Z,100.00
2022-12-01T08:41:08.356Z,100.00
2022-12-01T08:43:58.440Z,100.00
2022-12-01T08:46:44.656Z,100.00
2022-12-01T08:49:30.003Z,100.00
2022-12-01T08:52:15.267Z,100.00
2022-12-01T08:55:01.179Z,100.00
2022-12-01T08:57:46.655Z,100.00
2022-12-01T09:00:31.771Z,100.00
2022-12-01T09:03:17.204Z,100.00
2022-12-01T09:06:08.581Z,100.00
2022-12-01T09:08:53.895Z,100.00
2022-12-01T09:11:39.914Z,100.00
2022-12-01T09:14:25.261Z,100.00
2022-12-01T09:17:10.223Z,100.00
2022-12-01T09:19:55.451Z,100.00
2022-12-01T09:22:40.648Z,100.00
2022-12-01T09:25:25.918Z,100.00
2022-12-01T09:28:11.360Z,100.00
2022-12-01T09:30:56.816Z,100.00
2022-12-01T09:33:41.925Z,100.00
2022-12-01T09:36:28.578Z,100.00
2022-12-01T09:39:19.590Z,100.00
2022-12-01T09:42:16.731Z,100.00
2022-12-01T09:45:04.987Z,100.00
2022-12-01T09:47:50.144Z,100.00
2022-12-01T09:50:36.220Z,100.00
2022-12-01T09:53:25.305Z,100.00
2022-12-01T09:56:42.627Z,100.00
2022-12-01T09:59:40.199Z,100.00
2022-12-01T10:02:31.314Z,100.00
2022-12-01T10:05:22.223Z,100.00
2022-12-01T10:08:15.508Z,100.00
2022-12-01T10:11:24.824Z,100.00
2022-12-01T10:14:20.073Z,100.00
2022-12-01T10:17:11.842Z,100.00
2022-12-01T10:20:10.748Z,100.00
2022-12-01T10:23:33.605Z,100.00
2022-12-01T10:26:31.476Z,100.00
2022-12-01T10:29:36.312Z,100.00
2022-12-01T10:32:36.092Z,100.00
2022-12-01T10:35:25.143Z,100.00
2022-12-01T10:38:24.180Z,100.00
2022-12-01T10:41:14.471Z,100.00
2022-12-01T10:44:00.827Z,100.00
2022-12-01T10:46:52.808Z,100.00
2022-12-01T10:49:40.845Z,100.00
2022-12-01T10:52:34.562Z,100.00
2022-12-01T10:55:22.906Z,100.00
2022-12-01T10:58:15.530Z,100.00
2022-12-01T11:01:06.634Z,100.00
2022-12-01T11:04:08.129Z,100.00
2022-12-01T11:06:53.867Z,100.00
2022-12-01T11:09:39.142Z,100.00
2022-12-01T11:12:25.068Z,100.00
2022-12-01T11:15:20.948Z,100.00
2022-12-01T11:18:31.339Z,100.00
2022-12-01T11:21:28.056Z,100.00
2022-12-01T11:24:27.913Z,100.00
2022-12-01T11:27:15.051Z,100.00
2022-12-01T11:30:27.383Z,100.00
2022-12-01T11:33:14.926Z,100.00
2022-12-01T11:36:00.307Z,100.00
2022-12-01T11:38:45.591Z,100.00
2022-12-01T11:41:40.638Z,100.00
2022-12-01T11:44:50.480Z,100.00
2022-12-01T11:47:32.423Z,100.00
2022-12-01T11:50:27.192Z,100.00
2022-12-01T11:53:42.750Z,100.00
2022-12-01T11:56:30.268Z,100.00
2022-12-01T11:59:17.012Z,100.00
2022-12-01T12:02:30.551Z,100.00
2022-12-01T12:05:21.648Z,100.00
2022-12-01T12:08:21.947Z,100.00
2022-12-01T12:11:20.404Z,100.00
2022-12-01T12:14:39.982Z,100.00
2022-12-01T12:18:05.901Z,100.00
2022-12-01T12:21:20.006Z,100.00
2022-12-01T12:24:31.243Z,100.00
2022-12-01T12:27:32.189Z,100.00
2022-12-01T12:30:29.756Z,100.00
2022-12-01T12:33:28.846Z,100.00
2022-12-01T12:36:29.030Z,100.00
2022-12-01T12:39:59.786Z,100.00
2022-12-01T12:42:44.663Z,100.00
2022-12-01T12:45:57.584Z,100.00
2022-12-01T12:49:11.639Z,100.00
2022-12-01T12:52:08.144Z,100.00
2022-12-01T12:55:12.373Z,100.00
2022-12-01T12:58:06.672Z,100.00
2022-12-01T13:01:09.614Z,99.24
2022-12-01T13:04:07.927Z,99.16
2022-12-01T13:07:01.835Z,98.49
2022-12-01T13:10:00.647Z,97.42
2022-12-01T13:12:56.150Z,96.26
2022-12-01T13:15:42.512Z,95.72
2022-12-01T13:18:37.646Z,95.37
2022-12-01T13:21:24.060Z,95.07
2022-12-01T13:24:21.340Z,95.68
2022-12-01T13:27:14.703Z,95.25
2022-12-01T13:30:00.660Z,96.47
2022-12-01T13:32:47.108Z,97.38
2022-12-01T13:35:37.922Z,97.85
2022-12-01T13:38:26.793Z,98.51
2022-12-01T13:41:17.840Z,99.34
2022-12-01T13:44:07.202Z,99.43
2022-12-01T13:47:04.931Z,100.00
2022-12-01T13:49:52.098Z,100.00
2022-12-01T13:52:49.652Z,100.00
2022-12-01T13:55:34.665Z,100.00
2022-12-01T13:58:29.522Z,100.00
2022-12-01T14:01:21.240Z,100.00
2022-12-01T14:04:15.773Z,100.00
2022-12-01T14:07:27.906Z,100.00
2022-12-01T14:10:22.674Z,100.00
2022-12-01T14:13:19.325Z,100.00
2022-12-01T14:16:05.291Z,100.00
2022-12-01T14:18:58.737Z,100.00
2022-12-01T14:21:49.608Z,100.00
2022-12-01T14:24:37.815Z,100.00
2022-12-01T14:27:41.391Z,100.00
2022-12-01T14:30:42.054Z,100.00
2022-12-01T14:33:39.641Z,100.00
2022-12-01T14:36:24.690Z,100.00
2022-12-01T14:39:17.995Z,100.00
2022-12-01T14:42:11.322Z,100.00
2022-12-01T14:44:57.435Z,100.00
2022-12-01T14:47:49.413Z,100.00
2022-12-01T14:50:45.072Z,100.00
2022-12-01T14:53:34.028Z,100.00
2022-12-01T14:56:21.952Z,100.00
2022-12-01T14:59:22.613Z,100.00
2022-12-01T15:02:12.141Z,100.00
2022-12-01T15:05:18.239Z,100.00
2022-12-01T15:11:27.103Z,100.00
2022-12-01T15:14:56.710Z,100.00
2022-12-01T15:17:41.712Z,100.00
2022-12-01T15:20:41.296Z,100.00
2022-12-01T15:23:29.985Z,100.00
2022-12-01T15:26:19.624Z,100.00
2022-12-01T15:29:28.523Z,100.00
2022-12-01T15:32:17.135Z,100.00
2022-12-01T15:35:04.630Z,100.00
2022-12-01T15:37:51.311Z,100.00
2022-12-01T15:41:06.645Z,100.00
2022-12-01T15:43:41.943Z,100.00
2022-12-01T15:46:34.546Z,100.00
2022-12-01T15:49:27.765Z,100.00
2022-12-01T15:52:12.894Z,100.00
2022-12-01T15:55:02.964Z,100.00
2022-12-01T15:57:48.132Z,100.00
2022-12-01T16:00:33.831Z,100.00
2022-12-01T16:03:19.526Z,100.00
2022-12-01T16:06:04.705Z,100.00
2022-12-01T16:09:27.380Z,100.00
2022-12-01T16:12:12.292Z,100.00
2022-12-01T16:15:19.049Z,100.00
2022-12-01T16:18:26.160Z,100.00
2022-12-01T16:21:11.491Z,100.00
2022-12-01T16:24:05.721Z,100.00
2022-12-01T16:26:55.598Z,100.00
2022-12-01T16:30:06.379Z,100.00
2022-12-01T16:33:00.397Z,100.00
2022-12-01T16:35:46.185Z,100.00
2022-12-01T16:38:31.314Z,100.00
2022-12-01T16:41:25.158Z,100.00
2022-12-01T16:44:32.164Z,100.00
2022-12-01T16:47:19.696Z,100.00
2022-12-01T16:50:05.416Z,100.00
2022-12-01T16:52:50.299Z,100.00
2022-12-01T16:55:46.435Z,100.00
2022-12-01T16:58:31.544Z,100.00
2022-12-01T17:01:17.094Z,100.00
2022-12-01T17:04:07.233Z,100.00
2022-12-01T17:06:53.771Z,100.00
2022-12-01T17:09:38.992Z,100.00
2022-12-01T17:12:26.370Z,100.00
2022-12-01T17:15:11.889Z,100.00
2022-12-01T17:17:57.249Z,100.00
2022-12-01T17:20:42.955Z,100.00
2022-12-01T17:23:28.248Z,100.00
2022-12-01T17:26:16.333Z,100.00
2022-12-01T17:29:02.149Z,100.00
2022-12-01T17:31:47.575Z,100.00
2022-12-01T17:34:32.672Z,100.00
2022-12-01T17:37:21.197Z,100.00
2022-12-01T17:40:10.282Z,100.00
2022-12-01T17:42:55.282Z,100.00
2022-12-01T17:45:42.099Z,100.00
2022-12-01T17:48:28.437Z,100.00
2022-12-01T17:51:14.375Z,100.00
2022-12-01T17:53:59.703Z,100.00
2022-12-01T17:56:45.082Z,100.00
2022-12-01T17:59:30.333Z,100.00
2022-12-01T18:02:15.744Z,100.00
2022-12-01T18:05:00.939Z,100.00
2022-12-01T18:07:46.416Z,100.00
2022-12-01T18:10:31.468Z,100.00
2022-12-01T18:13:16.425Z,100.00
2022-12-01T18:16:09.175Z,100.00
2022-12-01T18:18:56.451Z,100.00
2022-12-01T18:21:42.144Z,100.00
2022-12-01T18:24:27.069Z,100.00
2022-12-01T18:27:12.315Z,100.00
2022-12-01T18:29:57.545Z,100.00
2022-12-01T18:32:42.867Z,100.00
2022-12-01T18:35:31.798Z,100.00
2022-12-01T18:38:17.395Z,100.00
2022-12-01T18:41:03.148Z,100.00
2022-12-01T18:43:48.313Z,100.00
2022-12-01T18:46:33.912Z,100.00
2022-12-01T18:49:19.124Z,100.00
2022-12-01T18:52:04.964Z,100.00
2022-12-01T18:54:50.440Z,100.00
2022-12-01T18:57:35.915Z,100.00
2022-12-01T19:00:21.742Z,100.00
2022-12-01T19:03:06.948Z,100.00
2022-12-01T19:05:52.234Z,100.00
2022-12-01T19:08:37.368Z,100.00
2022-12-01T19:11:22.524Z,100.00
2022-12-01T19:14:11.998Z,100.00
2022-12-01T19:16:57.245Z,100.00
2022-12-01T19:19:42.404Z,100.00
2022-12-01T19:22:27.869Z,100.00
2022-12-01T19:25:13.611Z,100.00
2022-12-01T19:27:59.059Z,100.00
2022-12-01T19:30:48.226Z,100.00
2022-12-01T19:33:33.644Z,100.00
2022-12-01T19:36:22.202Z,100.00
2022-12-01T19:39:07.821Z,100.00
2022-12-01T19:41:53.114Z,100.00
2022-12-01T19:44:38.325Z,100.00
2022-12-01T19:47:23.619Z,100.00
2022-12-01T19:50:09.760Z,100.00
2022-12-01T19:52:55.085Z,100.00
2022-12-01T19:55:40.229Z,100.00
2022-12-01T19:58:25.532Z,100.00
2022-12-01T20:01:13.037Z,100.00
2022-12-01T20:03:58.510Z,100.00
2022-12-01T20:06:44.040Z,100.00
2022-12-01T20:09:28.994Z,100.00
2022-12-01T20:12:14.632Z,100.00
2022-12-01T20:15:00.629Z,100.00
2022-12-01T20:17:45.569Z,100.00
2022-12-01T20:20:30.667Z,100.00
2022-12-01T20:23:15.822Z,100.00
2022-12-01T20:26:04.078Z,100.00
2022-12-01T20:28:52.616Z,100.00
2022-12-01T20:31:37.921Z,100.00
2022-12-01T20:34:26.898Z,100.00
2022-12-01T20:37:12.521Z,100.00
2022-12-01T20:39:57.872Z,100.00
2022-12-01T20:42:43.058Z,100.00
2022-12-01T20:45:28.251Z,100.00
2022-12-01T20:48:14.322Z,100.00
2022-12-01T20:51:00.964Z,100.00
2022-12-01T20:54:05.580Z,100.00
2022-12-01T20:56:51.569Z,100.00
2022-12-01T20:59:36.974Z,100.00
2022-12-01T21:02:22.173Z,100.00
2022-12-01T21:05:07.300Z,100.00
2022-12-01T21:07:52.943Z,100.00
2022-12-01T21:10:44.874Z,100.00
2022-12-01T21:13:42.107Z,100.00
2022-12-01T21:16:34.045Z,100.00
2022-12-01T21:19:51.239Z,100.00
2022-12-01T21:22:36.470Z,100.00
2022-12-01T21:25:24.302Z,100.00
2022-12-01T21:28:24.132Z,100.00
2022-12-01T21:31:14.717Z,100.00
2022-12-01T21:33:59.819Z,100.00
2022-12-01T21:36:47.383Z,100.00
2022-12-01T21:39:34.628Z,100.00
2022-12-01T21:42:22.848Z,100.00
2022-12-01T21:45:22.181Z,100.00
2022-12-01T21:48:16.402Z,100.00
2022-12-01T21:51:04.731Z,100.00
2022-12-01T21:53:52.010Z,100.00
2022-12-01T21:56:37.315Z,100.00
2022-12-01T21:59:23.933Z,100.00
2022-12-01T22:02:36.372Z,100.00
2022-12-01T22:05:28.028Z,100.00
2022-12-01T22:08:32.820Z,100.00
2022-12-01T22:11:27.314Z,100.00
2022-12-01T22:14:36.429Z,100.00
2022-12-01T22:17:22.135Z,100.00
2022-12-01T22:20:22.366Z,100.00
2022-12-01T22:23:12.579Z,100.00
2022-12-01T22:25:58.003Z,100.00
2022-12-01T22:28:43.269Z,100.00
2022-12-01T22:31:29.314Z,100.00
2022-12-01T22:34:16.495Z,100.00
2022-12-01T22:37:01.653Z,100.00
2022-12-01T22:39:48.765Z,100.00
2022-12-01T22:42:35.282Z,100.00
2022-12-01T22:45:24.090Z,100.00
2022-12-01T22:48:27.527Z,100.00
2022-12-01T22:51:22.503Z,100.00
2022-12-01T22:54:10.414Z,100.00
2022-12-01T22:57:15.601Z,100.00
2022-12-01T23:00:13.973Z,100.00
2022-12-01T23:02:59.297Z,100.00
2022-12-01T23:05:45.349Z,100.00
2022-12-01T23:08:30.210Z,100.00
2022-12-01T23:11:15.142Z,100.00
2022-12-01T23:14:00.290Z,100.00
2022-12-01T23:16:45.494Z,100.00
2022-12-01T23:19:32.600Z,100.00
2022-12-01T23:22:17.936Z,100.00
2022-12-01T23:25:13.314Z,100.00
2022-12-01T23:28:02.929Z,100.00
2022-12-01T23:30:52.536Z,100.00
2022-12-01T23:33:37.843Z,100.00
2022-12-01T23:36:26.094Z,100.00
2022-12-01T23:39:13.562Z,100.00
2022-12-01T23:41:59.183Z,100.00
2022-12-01T23:44:45.567Z,100.00
2022-12-01T23:47:30.878Z,100.00
2022-12-01T23:50:22.736Z,100.00
2022-12-01T23:53:23.536Z,100.00
2022-12-01T23:56:14.342Z,100.00
2022-12-01T23:59:01.277Z,100.00
